Time;durP1;ratioP1;P1;durP2;ratioP2;P2;SDS_P1;SDS_P2;PMS_P1;PMS_P2;Temp;Humidity;BMP_temperature;BMP_pressure;BME280_temperature;BME280_humidity;BME280_pressure;Samples;Min_cycle;Max_cycle;Signal;HPM_P1;HPM_P2
2022/09/25 00:00:32;;;;;;;8.23;6.10;;;333.60;2329.60;;;;;;5117356;27;20023;-75
2022/09/25 00:02:58;;;;;;;13.57;6.15;;;333.60;2329.60;;;;;;5120477;27;20079;-76
2022/09/25 00:05:23;;;;;;;13.27;7.55;;;333.60;2329.60;;;;;;5120266;27;20019;-74
2022/09/25 00:07:50;;;;;;;9.25;6.82;;;333.70;2329.60;;;;;;5125772;27;20019;-74
2022/09/25 00:10:16;;;;;;;8.85;6.40;;;333.70;2329.60;;;;;;5118512;27;20051;-75
2022/09/25 00:12:42;;;;;;;12.35;6.93;;;358.40;2329.60;;;;;;5117595;28;20028;-76
2022/09/25 00:15:09;;;;;;;9.02;5.88;;;333.70;2329.60;;;;;;5119406;28;20031;-75
2022/09/25 00:17:34;;;;;;;8.90;6.32;;;333.70;2329.60;;;;;;5119243;27;20012;-75
2022/09/25 00:20:01;;;;;;;11.20;6.53;;;333.70;2329.60;;;;;;5120409;28;20464;-77
2022/09/25 00:22:29;;;;;;;11.95;6.43;;;333.70;2329.60;;;;;;5121588;28;20015;-74
2022/09/25 00:24:55;;;;;;;9.95;6.22;;;333.70;2329.60;;;;;;5134758;27;20035;-74
2022/09/25 00:27:20;;;;;;;10.13;6.75;;;333.60;2329.60;;;;;;5123886;28;20023;-75
2022/09/25 00:29:46;;;;;;;9.27;6.85;;;333.60;2329.60;;;;;;5116329;28;20027;-74
2022/09/25 00:32:14;;;;;;;10.43;6.00;;;333.60;2329.60;;;;;;5118810;28;20043;-75
2022/09/25 00:34:40;;;;;;;8.57;5.97;;;333.70;2329.60;;;;;;5124419;28;20019;-75
2022/09/25 00:37:06;;;;;;;10.02;6.72;;;333.60;2329.60;;;;;;5118733;28;20019;-74
2022/09/25 00:39:33;;;;;;;11.45;6.70;;;333.60;2329.60;;;;;;5115582;28;20080;-75
2022/09/25 00:41:59;;;;;;;10.48;6.22;;;333.60;2329.60;;;;;;5113182;28;20023;-74
2022/09/25 00:44:56;;;;;;;9.50;6.43;;;333.60;2329.60;;;;;;5112620;28;20538;-74
2022/09/25 00:47:46;;;;;;;8.90;5.88;;;333.60;2329.60;;;;;;5112676;28;20545;-74
2022/09/25 00:50:38;;;;;;;11.68;6.75;;;333.60;2329.60;;;;;;5119283;28;20652;-74
2022/09/25 00:53:33;;;;;;;9.27;6.10;;;333.60;2329.60;;;;;;5103349;28;20096;-75
2022/09/25 00:56:01;;;;;;;10.98;6.82;;;333.50;2329.60;;;;;;5113585;28;20500;-74
2022/09/25 00:58:29;;;;;;;11.10;6.30;;;333.50;2329.60;;;;;;5116154;28;20031;-74
2022/09/25 01:00:55;;;;;;;15.80;7.22;;;333.60;2329.60;;;;;;5118343;28;20008;-75
2022/09/25 01:03:22;;;;;;;9.55;6.57;;;333.60;2329.60;;;;;;5115228;28;20136;-73
2022/09/25 01:05:48;;;;;;;15.77;7.03;;;333.60;2329.60;;;;;;5115302;28;20051;-74
2022/09/25 01:08:18;;;;;;;11.05;6.28;;;333.70;2329.60;;;;;;5123310;28;20023;-74
2022/09/25 01:10:44;;;;;;;13.70;6.50;;;333.70;2329.60;;;;;;5073452;27;1195996;-74
2022/09/25 01:13:12;;;;;;;10.02;7.28;;;333.70;2329.60;;;;;;5113651;27;20023;-75
2022/09/25 01:16:08;;;;;;;11.50;6.55;;;333.70;2329.60;;;;;;5116113;27;20031;-75
2022/09/25 01:19:15;;;;;;;10.18;7.25;;;333.70;2329.60;;;;;;5111057;27;20027;-74
2022/09/25 01:21:43;;;;;;;;;;;333.70;2329.60;;;;;;5050995;28;20060;-74
2022/09/25 01:24:36;;;;;;;10.30;6.18;;;358.40;2329.60;;;;;;5050509;28;19948;-77
2022/09/25 01:27:44;;;;;;;12.98;6.35;;;358.40;2329.60;;;;;;5050282;28;20074;-75
2022/09/25 01:30:17;;;;;;;10.68;6.95;;;358.40;2329.60;;;;;;5032636;28;20037;-74
2022/09/25 01:32:55;;;;;;;12.80;6.45;;;358.40;2329.60;;;;;;5050204;28;20029;-75
2022/09/25 01:35:46;;;;;;;8.20;5.93;;;358.50;2329.60;;;;;;5050564;28;20095;-76
2022/09/25 01:38:39;;;;;;;11.45;5.57;;;358.50;2329.60;;;;;;5043082;28;20156;-75
2022/09/25 01:41:15;;;;;;;11.15;6.32;;;358.50;2329.60;;;;;;5049999;28;20056;-75
2022/09/25 01:44:02;;;;;;;7.75;5.30;;;358.50;2329.60;;;;;;5050398;28;20070;-76
2022/09/25 01:46:33;;;;;;;8.13;5.85;;;358.60;2329.60;;;;;;5049973;28;20103;-75
2022/09/25 01:49:05;;;;;;;10.98;6.30;;;358.60;2329.60;;;;;;5049809;28;20112;-75
2022/09/25 01:51:38;;;;;;;10.48;5.70;;;358.60;2329.60;;;;;;5049932;28;20120;-75
2022/09/25 01:54:10;;;;;;;9.18;5.88;;;358.60;2329.60;;;;;;5049840;28;20422;-75
2022/09/25 01:56:41;;;;;;;8.07;5.20;;;358.60;2329.60;;;;;;5049793;28;20025;-75
2022/09/25 01:59:13;;;;;;;10.88;6.13;;;358.60;2329.60;;;;;;5095312;27;20032;-75
2022/09/25 02:01:41;;;;;;;10.95;6.20;;;358.60;2329.60;;;;;;5116898;27;20031;-75
2022/09/25 02:04:21;;;;;;;11.48;6.90;;;358.60;2329.60;;;;;;5119394;27;20023;-75
2022/09/25 02:06:49;;;;;;;11.13;5.78;;;358.60;2329.60;;;;;;5111282;28;20381;-75
2022/09/25 02:09:20;;;;;;;11.25;6.68;;;358.60;2329.60;;;;;;5117511;27;20035;-74
2022/09/25 02:11:52;;;;;;;9.75;6.05;;;358.60;2329.60;;;;;;5121514;27;20050;-76
2022/09/25 02:14:26;;;;;;;9.55;6.00;;;358.70;2329.60;;;;;;5116279;27;20106;-74
2022/09/25 02:16:55;;;;;;;9.00;5.53;;;358.70;2329.60;;;;;;5115226;27;20389;-74
2022/09/25 02:22:13;;;;;;;10.98;6.63;;;358.80;2329.60;;;;;;5116212;27;20022;-74
2022/09/25 02:25:10;;;;;;;11.05;6.55;;;358.80;2329.60;;;;;;5115607;27;20465;-74
2022/09/25 02:27:36;;;;;;;9.93;6.40;;;358.80;2329.60;;;;;;5118225;27;20026;-74
2022/09/25 02:30:03;;;;;;;9.95;6.68;;;358.80;2329.60;;;;;;5121198;27;20455;-75
2022/09/25 02:32:31;;;;;;;10.38;6.55;;;358.80;2329.60;;;;;;5113241;27;20076;-75
2022/09/25 02:35:01;;;;;;;9.02;5.60;;;358.80;2329.60;;;;;;5120282;27;20071;-74
2022/09/25 02:37:27;;;;;;;11.50;5.68;;;358.70;2329.60;;;;;;5117457;27;20067;-74
2022/09/25 02:39:56;;;;;;;11.40;6.10;;;358.70;2329.60;;;;;;5111697;28;20555;-74
2022/09/25 02:42:30;;;;;;;9.02;6.35;;;358.70;2329.60;;;;;;5114643;27;20107;-74
2022/09/25 02:45:29;;;;;;;9.90;6.20;;;358.60;2329.60;;;;;;5114673;27;20015;-75
2022/09/25 02:48:12;;;;;;;11.30;6.40;;;358.60;2329.60;;;;;;5114600;28;20015;-75
2022/09/25 02:51:06;;;;;;;8.48;5.20;;;358.60;2329.60;;;;;;5107455;28;20024;-75
2022/09/25 02:53:54;;;;;;;11.30;6.32;;;358.60;2329.60;;;;;;5120306;28;20026;-74
2022/09/25 02:56:40;;;;;;;10.90;6.28;;;358.60;2329.60;;;;;;5111812;28;20058;-76
2022/09/25 02:59:23;;;;;;;8.20;5.68;;;358.60;2329.60;;;;;;5102008;28;20019;-74
2022/09/25 03:01:50;;;;;;;7.30;4.93;;;358.60;2329.60;;;;;;5122346;28;20105;-74
2022/09/25 03:04:18;;;;;;;10.45;6.15;;;358.60;2329.60;;;;;;5114995;28;20026;-75
2022/09/25 03:06:45;;;;;;;10.25;5.45;;;358.60;2329.60;;;;;;5126930;28;20016;-75
2022/09/25 03:09:12;;;;;;;8.23;6.00;;;358.60;2329.60;;;;;;5123753;28;20038;-74
2022/09/25 03:11:42;;;;;;;10.55;6.13;;;358.60;2329.60;;;;;;5103147;28;20095;-76
2022/09/25 03:14:08;;;;;;;8.98;5.65;;;358.50;2329.60;;;;;;5117079;28;20102;-76
2022/09/25 03:16:46;;;;;;;10.77;6.75;;;358.40;2329.60;;;;;;5120055;28;20030;-74
2022/09/25 03:19:12;;;;;;;8.43;5.88;;;333.70;2329.60;;;;;;5120321;28;20098;-75
2022/09/25 03:21:38;;;;;;;11.48;6.50;;;333.70;2329.60;;;;;;5111549;28;20027;-74
2022/09/25 03:24:04;;;;;;;10.05;7.05;;;333.70;2329.60;;;;;;5114165;28;20068;-75
2022/09/25 03:26:30;;;;;;;7.82;5.60;;;333.70;2329.60;;;;;;5117031;28;20028;-74
2022/09/25 03:29:00;;;;;;;8.25;5.68;;;333.70;2329.60;;;;;;5114219;28;20434;-74
2022/09/25 03:31:25;;;;;;;12.65;5.70;;;333.70;2329.60;;;;;;5120505;28;20019;-75
2022/09/25 03:33:51;;;;;;;8.18;5.50;;;333.70;2329.60;;;;;;5129353;28;20026;-74
2022/09/25 03:36:19;;;;;;;8.15;5.70;;;333.70;2329.60;;;;;;5117280;28;20518;-76
2022/09/25 03:38:48;;;;;;;13.32;6.28;;;358.40;2329.60;;;;;;5114165;28;20020;-74
2022/09/25 03:41:18;;;;;;;11.63;6.38;;;358.40;2329.60;;;;;;5111502;28;20019;-75
2022/09/25 03:43:44;;;;;;;7.70;5.22;;;358.40;2329.60;;;;;;5111825;28;20016;-74
2022/09/25 03:46:12;;;;;;;13.20;6.22;;;358.40;2329.60;;;;;;5111343;28;20023;-74
2022/09/25 03:48:39;;;;;;;9.07;5.85;;;333.70;2329.60;;;;;;5116657;28;20057;-76
2022/09/25 03:51:05;;;;;;;10.77;5.53;;;358.40;2329.60;;;;;;5119772;28;20031;-74
2022/09/25 03:53:32;;;;;;;9.60;5.70;;;333.70;2329.60;;;;;;5113442;28;20020;-75
2022/09/25 03:55:59;;;;;;;11.73;6.20;;;333.60;2329.60;;;;;;5120736;27;20012;-74
2022/09/25 03:58:25;;;;;;;13.48;7.30;;;333.60;2329.60;;;;;;5129729;27;20015;-74
2022/09/25 04:00:55;;;;;;;8.45;6.43;;;333.60;2329.60;;;;;;5116233;27;20102;-75
2022/09/25 04:03:23;;;;;;;10.77;5.88;;;333.60;2329.60;;;;;;5130601;27;20048;-74
2022/09/25 04:05:50;;;;;;;10.77;6.43;;;333.60;2329.60;;;;;;5123138;27;20477;-74
2022/09/25 04:08:16;;;;;;;8.70;6.43;;;333.50;2329.60;;;;;;5117479;27;20024;-74
2022/09/25 04:10:42;;;;;;;9.63;6.45;;;333.40;2329.60;;;;;;5120544;27;20123;-74
2022/09/25 04:13:11;;;;;;;10.80;6.35;;;333.40;2329.60;;;;;;5121358;27;20050;-75
2022/09/25 04:15:39;;;;;;;8.60;6.20;;;333.40;2329.60;;;;;;5122985;27;20542;-75
2022/09/25 04:18:05;;;;;;;20.17;7.20;;;333.40;2329.60;;;;;;5117496;27;20011;-75
2022/09/25 04:20:31;;;;;;;11.25;6.85;;;333.20;2329.60;;;;;;5120114;27;20045;-73
2022/09/25 04:22:57;;;;;;;9.15;7.05;;;333.30;2329.60;;;;;;5119884;27;20461;-74
2022/09/25 04:25:24;;;;;;;9.27;6.97;;;333.30;2329.60;;;;;;5117388;27;20027;-74
2022/09/25 04:27:54;;;;;;;13.20;6.78;;;333.20;2329.60;;;;;;5117134;27;20019;-74
2022/09/25 04:30:21;;;;;;;12.82;7.20;;;333.20;2329.60;;;;;;5117030;27;20070;-74
2022/09/25 04:35:31;;;;;;;16.45;7.80;;;333.20;2329.60;;;;;;5117889;27;20512;-73
2022/09/25 04:37:57;;;;;;;13.63;7.60;;;333.10;2329.60;;;;;;5116973;27;20016;-74
2022/09/25 04:40:23;;;;;;;11.10;7.13;;;333.10;2329.60;;;;;;5117083;27;20031;-75
2022/09/25 04:42:57;;;;;;;12.52;7.78;;;333.10;2329.60;;;;;;5119318;27;20568;-73
2022/09/25 04:45:25;;;;;;;14.40;8.05;;;333.10;2329.60;;;;;;5098215;28;20031;-75
2022/09/25 04:47:54;;;;;;;13.32;8.30;;;333.00;2329.60;;;;;;5116831;27;20037;-74
2022/09/25 04:50:21;;;;;;;14.70;8.23;;;333.00;2329.60;;;;;;5119239;27;20058;-74
2022/09/25 04:52:50;;;;;;;14.10;7.82;;;333.00;2329.60;;;;;;5119557;27;20016;-73
2022/09/25 04:55:20;;;;;;;15.57;9.18;;;333.10;2329.60;;;;;;5121857;27;20020;-74
2022/09/25 04:57:51;;;;;;;11.20;7.93;;;333.10;2329.60;;;;;;5116787;27;20038;-75
2022/09/25 05:00:18;;;;;;;12.55;7.57;;;333.00;2329.60;;;;;;5119132;27;20016;-75
2022/09/25 05:02:45;;;;;;;13.98;9.07;;;333.00;2329.60;;;;;;5122203;27;20102;-73
2022/09/25 05:05:11;;;;;;;14.13;9.82;;;332.90;2329.60;;;;;;5115159;27;20023;-74
2022/09/25 05:07:38;;;;;;;11.30;8.75;;;332.90;2329.60;;;;;;5116297;27;20023;-74
2022/09/25 05:10:06;;;;;;;14.15;9.68;;;332.90;2329.60;;;;;;5118798;27;20047;-74
2022/09/25 05:12:33;;;;;;;14.93;8.68;;;332.90;2329.60;;;;;;5117303;27;20068;-74
2022/09/25 05:14:58;;;;;;;16.63;9.88;;;332.90;2329.60;;;;;;5120086;27;20024;-74
2022/09/25 05:17:24;;;;;;;16.38;9.00;;;332.80;2329.60;;;;;;5122159;27;20030;-74
2022/09/25 05:19:50;;;;;;;18.30;9.40;;;332.80;2329.60;;;;;;5121079;27;20023;-76
2022/09/25 05:22:15;;;;;;;21.17;10.70;;;332.80;2329.60;;;;;;5119214;27;20015;-74
2022/09/25 05:24:41;;;;;;;14.18;9.15;;;332.90;2329.60;;;;;;5118613;27;20082;-73
2022/09/25 05:27:07;;;;;;;14.73;9.63;;;332.90;2329.60;;;;;;5116040;27;20318;-73
2022/09/25 05:29:33;;;;;;;14.52;9.35;;;332.90;2329.60;;;;;;5117516;27;20040;-74
2022/09/25 05:31:59;;;;;;;14.48;9.93;;;333.00;2329.60;;;;;;5116857;27;20034;-74
2022/09/25 05:34:26;;;;;;;15.43;9.80;;;333.10;2329.60;;;;;;5116245;27;20374;-75
2022/09/25 05:36:51;;;;;;;17.02;10.30;;;333.10;2329.60;;;;;;5123820;27;20076;-74
2022/09/25 05:39:17;;;;;;;18.75;9.88;;;333.20;2329.60;;;;;;5113595;28;20027;-75
2022/09/25 05:41:43;;;;;;;19.30;9.88;;;333.20;2329.60;;;;;;5113437;28;20031;-75
2022/09/25 05:44:10;;;;;;;15.75;9.85;;;333.20;2329.60;;;;;;5095052;28;20462;-78
2022/09/25 05:46:36;;;;;;;14.68;9.50;;;333.20;2329.60;;;;;;5108695;27;20027;-76
2022/09/25 05:49:02;;;;;;;16.30;10.30;;;333.30;2329.60;;;;;;5095069;28;20465;-78
2022/09/25 05:51:28;;;;;;;16.70;9.68;;;333.30;2329.60;;;;;;5094934;28;20047;-77
2022/09/25 05:53:54;;;;;;;19.98;10.30;;;333.40;2329.60;;;;;;5095451;28;20112;-81
2022/09/25 05:56:20;;;;;;;12.95;8.90;;;333.40;2329.60;;;;;;5086848;27;20082;-78
2022/09/25 05:58:47;;;;;;;13.65;9.20;;;333.30;2329.60;;;;;;5108120;28;20024;-78
2022/09/25 06:01:13;;;;;;;13.85;9.68;;;333.40;2329.60;;;;;;5095858;28;20031;-78
2022/09/25 06:03:39;;;;;;;16.10;8.82;;;333.50;2329.60;;;;;;5105394;28;20035;-76
2022/09/25 06:06:05;;;;;;;16.95;10.38;;;333.50;2329.60;;;;;;5118527;27;20015;-78
2022/09/25 06:08:31;;;;;;;16.25;9.75;;;333.50;2329.60;;;;;;5096595;28;20047;-76
2022/09/25 06:10:59;;;;;;;20.02;9.45;;;333.60;2329.60;;;;;;5089685;27;20050;-77
2022/09/25 06:13:25;;;;;;;14.13;9.75;;;333.60;2329.60;;;;;;5108069;28;20515;-77
2022/09/25 06:15:52;;;;;;;16.05;9.88;;;358.40;2329.60;;;;;;5094952;28;20024;-77
2022/09/25 06:18:20;;;;;;;14.57;8.32;;;358.40;2329.60;;;;;;5109216;27;20023;-77
2022/09/25 06:20:47;;;;;;;17.73;9.43;;;358.50;2329.60;;;;;;5094972;28;20480;-77
2022/09/25 06:23:12;;;;;;;18.52;8.85;;;358.60;2329.60;;;;;;5112680;28;20063;-76
2022/09/25 06:25:38;;;;;;;17.05;9.73;;;358.60;2329.60;;;;;;5098522;28;20129;-76
2022/09/25 06:28:05;;;;;;;13.80;9.27;;;358.80;2329.60;;;;;;5106694;27;20023;-77
2022/09/25 06:30:33;;;;;;;13.40;9.30;;;359.00;2329.60;;;;;;5101485;27;20031;-75
2022/09/25 06:33:08;;;;;;;17.55;8.75;;;359.10;2329.60;;;;;;5105961;28;20031;-77
2022/09/25 06:35:39;;;;;;;14.20;9.15;;;359.10;2329.60;;;;;;5095718;27;20035;-77
2022/09/25 06:38:05;;;;;;;16.92;10.00;;;359.30;2329.60;;;;;;5106644;28;20499;-74
2022/09/25 06:40:31;;;;;;;15.25;9.05;;;384.10;2329.60;;;;;;5114057;27;20028;-75
2022/09/25 06:42:58;;;;;;;14.88;8.57;;;384.30;2329.60;;;;;;5112648;28;20552;-78
2022/09/25 06:45:25;;;;;;;12.85;8.27;;;384.40;2329.60;;;;;;5106933;27;20072;-74
2022/09/25 06:47:56;;;;;;;14.30;9.02;;;384.40;2329.60;;;;;;5109753;28;20030;-75
2022/09/25 06:50:30;;;;;;;10.70;8.10;;;384.40;2329.60;;;;;;5090573;28;20044;-75
2022/09/25 06:52:58;;;;;;;17.30;8.30;;;384.40;2329.60;;;;;;5092512;28;20385;-76
2022/09/25 06:55:25;;;;;;;16.73;9.05;;;384.50;2329.60;;;;;;5090948;28;20024;-77
2022/09/25 06:57:51;;;;;;;12.48;8.57;;;384.50;2329.60;;;;;;5109385;28;20028;-77
2022/09/25 07:00:16;;;;;;;17.08;8.68;;;384.60;2329.60;;;;;;5112697;28;20030;-77
2022/09/25 07:05:26;;;;;;;12.25;9.00;;;384.60;2329.60;;;;;;5112417;28;20557;-77
2022/09/25 07:07:53;;;;;;;15.07;7.70;;;384.80;2329.60;;;;;;5094260;28;20023;-77
2022/09/25 07:10:19;;;;;;;17.30;8.40;;;384.90;2329.60;;;;;;5111966;28;20051;-78
2022/09/25 07:12:45;;;;;;;14.60;7.65;;;409.60;2355.20;;;;;;5126686;28;20019;-76
2022/09/25 07:15:11;;;;;;;10.50;7.05;;;409.60;2355.20;;;;;;5112392;28;20051;-77
2022/09/25 07:17:41;;;;;;;14.77;8.13;;;409.70;2355.20;;;;;;5112516;28;20046;-78
2022/09/25 07:20:07;;;;;;;12.95;8.38;;;409.70;2355.20;;;;;;5116750;28;20094;-77
2022/09/25 07:22:33;;;;;;;13.30;7.45;;;409.80;2355.20;;;;;;5103809;28;20024;-77
2022/09/25 07:24:59;;;;;;;14.18;8.25;;;409.90;2355.20;;;;;;5110530;28;20449;-78
2022/09/25 07:27:24;;;;;;;11.95;7.22;;;410.00;2355.20;;;;;;5124716;27;20031;-77
2022/09/25 07:29:51;;;;;;;12.77;7.85;;;410.10;2355.20;;;;;;5098201;28;20107;-79
2022/09/25 07:32:17;;;;;;;26.80;8.63;;;410.20;2355.20;;;;;;5116170;28;20020;-79
2022/09/25 07:34:42;;;;;;;15.18;7.68;;;410.30;2355.20;;;;;;5116393;28;20096;-79
2022/09/25 07:37:08;;;;;;;13.48;7.47;;;410.40;2355.20;;;;;;5115923;28;20526;-77
2022/09/25 07:39:34;;;;;;;12.70;8.13;;;410.50;2355.20;;;;;;5116175;28;20032;-77
2022/09/25 07:42:00;;;;;;;13.00;8.60;;;410.50;2355.20;;;;;;5130512;27;20023;-79
2022/09/25 07:44:25;;;;;;;13.65;7.80;;;435.20;2355.20;;;;;;5102902;28;20118;-76
2022/09/25 07:46:51;;;;;;;12.88;7.03;;;435.40;2355.20;;;;;;5135809;27;20051;-77
2022/09/25 07:49:17;;;;;;;11.25;6.82;;;435.60;2355.20;;;;;;5115203;27;20020;-77
2022/09/25 07:51:43;;;;;;;11.38;7.25;;;435.80;2355.20;;;;;;5123903;27;20088;-77
2022/09/25 07:54:09;;;;;;;9.45;6.53;;;435.90;2355.20;;;;;;5141066;27;20040;-77
2022/09/25 07:56:36;;;;;;;11.43;6.70;;;436.10;2355.20;;;;;;5124529;27;20473;-77
2022/09/25 07:59:02;;;;;;;10.57;6.93;;;460.80;2380.80;;;;;;5102380;28;20319;-77
2022/09/25 08:01:28;;;;;;;10.43;6.35;;;460.80;2380.80;;;;;;5114989;28;20374;-76
2022/09/25 08:03:54;;;;;;;11.50;5.68;;;461.00;2380.80;;;;;;5123186;27;20019;-77
2022/09/25 08:06:20;;;;;;;9.18;5.82;;;461.10;2380.80;;;;;;5133644;27;20051;-77
2022/09/25 08:08:45;;;;;;;15.90;9.82;;;461.20;2380.80;;;;;;5135620;27;20054;-77
2022/09/25 08:11:13;;;;;;;10.70;6.20;;;461.30;2380.80;;;;;;5115392;27;20044;-76
2022/09/25 08:13:40;;;;;;;14.43;8.32;;;461.30;2380.80;;;;;;5118293;27;20012;-76
2022/09/25 08:16:17;;;;;;;11.18;6.40;;;461.40;2380.80;;;;;;5115054;28;20030;-76
2022/09/25 08:18:45;;;;;;;12.82;6.20;;;461.40;2380.80;;;;;;5097081;28;20023;-76
2022/09/25 08:21:13;;;;;;;15.23;8.68;;;461.40;2380.80;;;;;;5115149;28;20016;-78
2022/09/25 08:23:40;;;;;;;16.63;7.57;;;461.50;2380.80;;;;;;5115380;28;20012;-75
2022/09/25 08:26:06;;;;;;;26.55;12.95;;;461.70;2380.80;;;;;;5115007;28;20019;-75
2022/09/25 08:28:32;;;;;;;19.98;10.82;;;461.70;2380.80;;;;;;5116421;27;20019;-74
2022/09/25 08:30:59;;;;;;;13.00;6.97;;;486.40;2380.80;;;;;;5126296;27;20027;-75
2022/09/25 08:33:25;;;;;;;10.05;6.50;;;486.40;2380.80;;;;;;5119689;27;20477;-75
2022/09/25 08:35:59;;;;;;;18.02;10.60;;;486.50;2380.80;;;;;;5122323;27;20035;-75
2022/09/25 08:38:26;;;;;;;11.50;7.40;;;486.60;2380.80;;;;;;5134690;27;20034;-75
2022/09/25 08:41:15;;;;;;;11.95;6.85;;;486.50;2380.80;;;;;;5115116;28;20030;-76
2022/09/25 08:43:59;;;;;;;10.88;6.90;;;486.70;2355.20;;;;;;5096562;28;20090;-75
2022/09/25 08:49:30;;;;;;;9.95;5.88;;;486.80;2304.00;;;;;;5103689;27;20092;-76
2022/09/25 08:52:01;;;;;;;11.10;7.18;;;487.00;2380.80;;;;;;5122468;27;20011;-75
2022/09/25 08:54:30;;;;;;;9.57;6.30;;;487.10;2355.20;;;;;;5125840;27;20019;-74
2022/09/25 08:57:15;;;;;;;10.52;6.55;;;487.10;2201.60;;;;;;5128808;27;20012;-76
2022/09/25 08:59:43;;;;;;;14.68;7.75;;;487.10;2227.20;;;;;;5125992;27;20094;-75
2022/09/25 09:02:25;;;;;;;16.75;6.80;;;487.10;2252.80;;;;;;5119658;27;20478;-75
2022/09/25 09:04:55;;;;;;;12.95;7.85;;;487.10;2278.40;;;;;;5123018;27;20015;-76
2022/09/25 09:07:36;;;;;;;17.05;10.27;;;487.10;2278.40;;;;;;5122384;27;20015;-78
2022/09/25 09:10:26;;;;;;;20.05;11.25;;;487.10;2201.60;;;;;;5137516;27;20452;-77
2022/09/25 09:13:12;;;;;;;10.95;6.07;;;487.10;2201.60;;;;;;5120079;27;20019;-76
2022/09/25 09:16:00;;;;;;;9.07;4.83;;;487.10;2227.20;;;;;;5117858;27;20101;-76
2022/09/25 09:18:29;;;;;;;11.43;7.05;;;487.10;2304.00;;;;;;5119402;27;20015;-76
2022/09/25 09:20:58;;;;;;;11.45;6.60;;;487.10;2304.00;;;;;;5121013;27;20023;-75
2022/09/25 09:23:32;;;;;;;10.32;7.35;;;487.30;2176.00;;;;;;5130396;27;20023;-75
2022/09/25 09:26:11;;;;;;;11.23;5.93;;;512.00;2227.20;;;;;;5105465;27;20208;-76
2022/09/25 09:28:45;;;;;;;9.55;5.47;;;512.20;2099.20;;;;;;5100813;27;20027;-76
2022/09/25 09:31:31;;;;;;;8.32;6.53;;;512.40;2099.20;;;;;;5114575;27;20381;-75
2022/09/25 09:34:29;;;;;;;13.50;6.05;;;512.50;2150.40;;;;;;5126099;27;20015;-76
2022/09/25 09:37:14;;;;;;;8.77;5.45;;;512.60;2048.00;;;;;;5118738;27;20023;-75
2022/09/25 09:40:38;;;;;;;11.93;6.97;;;512.80;1971.20;;;;;;5119900;27;20047;-76
2022/09/25 09:43:07;;;;;;;6.70;4.72;;;512.80;1920.00;;;;;;5035681;28;20201;-75
2022/09/25 09:45:51;;;;;;;8.30;5.72;;;512.90;1766.40;;;;;;5037079;28;20087;-75
2022/09/25 09:48:27;;;;;;;10.57;5.68;;;537.60;1766.40;;;;;;5034790;28;20037;-76
2022/09/25 09:51:00;;;;;;;9.65;5.30;;;537.70;1792.00;;;;;;5033236;28;20084;-74
2022/09/25 09:53:33;;;;;;;10.05;5.32;;;538.20;1792.00;;;;;;5041712;28;20033;-76
2022/09/25 09:56:21;;;;;;;8.88;5.25;;;537.60;1894.40;;;;;;5050429;28;20025;-75
2022/09/25 09:58:56;;;;;;;16.60;5.00;;;537.90;1843.20;;;;;;4962767;28;20043;-75
2022/09/25 10:01:24;;;;;;;12.18;5.97;;;537.90;1766.40;;;;;;4960379;28;20043;-75
2022/09/25 10:04:02;;;;;;;7.13;5.03;;;538.00;1715.20;;;;;;4953960;28;20474;-77
2022/09/25 10:06:32;;;;;;;12.30;5.53;;;538.10;1740.80;;;;;;4952470;28;20054;-75
2022/09/25 10:08:58;;;;;;;9.50;4.72;;;538.20;1766.40;;;;;;4952338;28;20406;-76
2022/09/25 10:11:25;;;;;;;10.25;4.85;;;538.40;1664.00;;;;;;4970280;28;20063;-75
2022/09/25 10:13:51;;;;;;;10.40;5.88;;;538.50;1664.00;;;;;;5000861;28;20515;-74
2022/09/25 10:16:22;;;;;;;11.20;6.82;;;538.50;1766.40;;;;;;5010440;28;20584;-76
2022/09/25 10:19:08;;;;;;;13.93;6.03;;;538.40;1792.00;;;;;;4994126;28;20025;-77
2022/09/25 10:21:39;;;;;;;11.38;4.88;;;538.30;1817.60;;;;;;5010640;28;20030;-75
2022/09/25 10:24:06;;;;;;;8.73;5.20;;;538.20;1740.80;;;;;;5023415;28;20523;-76
2022/09/25 10:26:37;;;;;;;13.55;5.60;;;538.10;1766.40;;;;;;5018465;28;20079;-75
2022/09/25 10:29:07;;;;;;;11.93;5.43;;;538.10;1792.00;;;;;;5018296;28;20077;-75
2022/09/25 10:31:37;;;;;;;7.22;5.07;;;538.00;1766.40;;;;;;5023071;28;20133;-75
2022/09/25 10:34:21;;;;;;;9.85;5.15;;;538.10;1766.40;;;;;;5010567;28;20026;-75
2022/09/25 10:36:52;;;;;;;9.27;4.32;;;538.30;1740.80;;;;;;5109798;27;20031;-74
2022/09/25 10:39:38;;;;;;;8.80;5.15;;;538.40;1740.80;;;;;;5123040;27;20027;-75
2022/09/25 10:42:25;;;;;;;7.32;4.47;;;538.50;1740.80;;;;;;5090966;28;20379;-75
2022/09/25 10:44:55;;;;;;;6.97;3.95;;;563.20;1715.20;;;;;;5121369;27;20421;-74
2022/09/25 10:50:25;;;;;;;7.05;4.88;;;563.20;1766.40;;;;;;5112394;28;20172;-75
2022/09/25 10:52:54;;;;;;;;;;;563.20;1715.20;;;;;;5113344;28;20069;-75
2022/09/25 10:55:29;;;;;;;8.82;4.72;;;563.20;1689.60;;;;;;5120236;28;19907;-75
2022/09/25 10:58:20;;;;;;;12.02;7.10;;;563.20;1766.40;;;;;;5120455;28;20015;-75
2022/09/25 11:00:46;;;;;;;14.63;6.63;;;538.50;1817.60;;;;;;5094267;28;20048;-77
2022/09/25 11:03:22;;;;;;;10.68;6.13;;;538.40;1843.20;;;;;;5109307;28;20054;-75
2022/09/25 11:05:59;;;;;;;14.15;6.68;;;538.50;1792.00;;;;;;5098443;28;20024;-75
2022/09/25 11:08:31;;;;;;;8.02;5.28;;;538.40;1740.80;;;;;;5130909;27;20023;-75
2022/09/25 11:10:58;;;;;;;8.52;4.78;;;538.40;1715.20;;;;;;5129892;27;20079;-77
2022/09/25 11:13:49;;;;;;;7.63;4.25;;;538.40;1715.20;;;;;;5131016;27;20012;-74
2022/09/25 11:16:16;;;;;;;12.23;4.60;;;538.40;1689.60;;;;;;5053404;28;20514;-75
2022/09/25 11:18:50;;;;;;;7.93;4.57;;;538.40;1715.20;;;;;;5053487;28;20426;-76
2022/09/25 11:21:18;;;;;;;8.55;4.13;;;538.40;1740.80;;;;;;5053636;28;20037;-75
2022/09/25 11:23:58;;;;;;;7.60;4.82;;;538.40;1715.20;;;;;;5053561;28;20029;-75
2022/09/25 11:26:33;;;;;;;7.82;4.60;;;538.30;1740.80;;;;;;5065432;28;20093;-74
2022/09/25 11:29:39;;;;;;;11.02;4.75;;;538.30;1766.40;;;;;;5042275;28;20033;-75
2022/09/25 11:32:21;;;;;;;10.32;6.00;;;538.30;1868.80;;;;;;5015687;28;20038;-76
2022/09/25 11:35:04;;;;;;;9.43;5.82;;;538.20;1868.80;;;;;;5020131;28;20391;-76
2022/09/25 11:37:53;;;;;;;10.68;6.40;;;538.10;1894.40;;;;;;5032992;28;20052;-75
2022/09/25 11:43:50;;;;;;;15.80;7.28;;;538.10;1894.40;;;;;;5013034;28;20116;-74
2022/09/25 11:46:19;;;;;;;43.03;22.52;;;538.00;1971.20;;;;;;4973545;28;20027;-74
2022/09/25 11:48:48;;;;;;;22.25;10.38;;;538.00;2022.40;;;;;;4973469;28;20035;-75
2022/09/25 11:51:47;;;;;;;13.73;7.93;;;538.00;1971.20;;;;;;4973498;28;20045;-75
2022/09/25 11:54:15;;;;;;;14.80;8.57;;;538.00;1996.80;;;;;;4955995;28;20042;-74
2022/09/25 11:57:01;;;;;;;12.50;5.20;;;537.90;1996.80;;;;;;4953997;29;20035;-74
2022/09/25 12:00:14;;;;;;;11.63;5.97;;;537.80;1971.20;;;;;;4954370;29;20035;-74
2022/09/25 12:03:13;;;;;;;8.23;5.10;;;537.80;2073.60;;;;;;4954022;29;20027;-74
2022/09/25 12:06:26;;;;;;;9.63;6.00;;;537.70;1971.20;;;;;;4953997;29;20027;-74
2022/09/25 12:09:16;;;;;;;11.15;5.70;;;537.70;2048.00;;;;;;4995343;28;20140;-75
2022/09/25 12:12:08;;;;;;;8.80;4.85;;;537.70;2048.00;;;;;;5000041;28;20046;-78
2022/09/25 12:14:50;;;;;;;12.02;5.65;;;537.70;2022.40;;;;;;4995467;28;20042;-80
2022/09/25 12:17:34;;;;;;;17.48;9.10;;;537.70;2048.00;;;;;;5000556;28;20448;-76
2022/09/25 12:20:12;;;;;;;10.27;6.70;;;537.70;1996.80;;;;;;4993800;28;20030;-77
2022/09/25 12:22:55;;;;;;;13.18;9.43;;;537.70;2022.40;;;;;;4992836;28;20039;-76
2022/09/25 12:25:46;;;;;;;13.48;6.47;;;537.80;1971.20;;;;;;4980250;28;20031;-77
2022/09/25 12:28:23;;;;;;;14.32;6.30;;;537.80;2022.40;;;;;;4978952;28;20132;-76
2022/09/25 12:31:06;;;;;;;15.43;8.85;;;537.90;1971.20;;;;;;4988378;28;20106;-76
2022/09/25 12:33:59;;;;;;;10.23;6.13;;;538.00;1945.60;;;;;;4978165;28;20118;-75
2022/09/25 12:36:58;;;;;;;7.72;5.30;;;538.10;1817.60;;;;;;4997825;28;20053;-77
2022/09/25 12:39:48;;;;;;;8.48;4.82;;;538.10;1792.00;;;;;;4933920;29;20036;-76
2022/09/25 12:42:45;;;;;;;13.43;5.80;;;538.30;1766.40;;;;;;4932947;29;20498;-76
2022/09/25 12:45:20;;;;;;;10.23;5.40;;;538.50;1843.20;;;;;;4913405;28;20039;-76
2022/09/25 12:47:53;;;;;;;8.43;5.13;;;563.20;1792.00;;;;;;4943180;29;20028;-75
2022/09/25 12:50:27;;;;;;;8.15;5.40;;;563.40;1766.40;;;;;;4934612;29;20099;-77
2022/09/25 12:53:04;;;;;;;13.98;7.53;;;563.40;1740.80;;;;;;4946211;29;20039;-77
2022/09/25 12:55:41;;;;;;;14.55;6.65;;;563.50;1817.60;;;;;;4935298;28;20024;-76